Time;durP1;ratioP1;P1;durP2;ratioP2;P2;SDS_P1;SDS_P2;PMS_P1;PMS_P2;Temp;Humidity;BMP_temperature;BMP_pressure;BME280_temperature;BME280_humidity;BME280_pressure;Samples;Min_cycle;Max_cycle;Signal;HPM_P1;HPM_P2
2021/05/23 00:02:14;;;;;;;0.63;0.50;;;9.50;81.60;;;;;;4995914;28;20030;-76
2021/05/23 00:04:40;;;;;;;0.47;0.43;;;9.40;81.90;;;;;;5013960;28;20037;-77
2021/05/23 00:07:17;;;;;;;0.85;0.50;;;9.50;81.60;;;;;;5014264;28;20030;-76
2021/05/23 00:09:43;;;;;;;0.47;0.40;;;9.50;81.60;;;;;;5004938;28;20224;-76
2021/05/23 00:12:13;;;;;;;0.55;0.40;;;9.50;81.30;;;;;;4994648;28;20604;-76
2021/05/23 00:14:39;;;;;;;;;;;9.70;80.80;;;;;;4996722;28;20072;-76
2021/05/23 00:17:05;;;;;;;0.40;0.40;;;9.60;80.70;;;;;;4996001;28;19906;-76
2021/05/23 00:19:30;;;;;;;0.70;0.50;;;9.50;81.30;;;;;;4995988;28;20054;-76
2021/05/23 00:21:57;;;;;;;0.70;0.60;;;9.50;80.70;;;;;;4995822;28;20105;-76
2021/05/23 00:24:24;;;;;;;0.60;0.50;;;9.60;80.20;;;;;;4996004;28;20032;-76
2021/05/23 00:26:50;;;;;;;0.73;0.50;;;9.70;79.90;;;;;;4995989;28;20113;-76
2021/05/23 00:29:17;;;;;;;0.50;0.40;;;9.70;80.40;;;;;;5014297;28;20117;-77
2021/05/23 00:31:42;;;;;;;0.60;0.40;;;9.50;80.40;;;;;;5013975;28;20450;-76
2021/05/23 00:34:08;;;;;;;0.50;0.50;;;9.50;81.10;;;;;;5013939;28;20026;-77
2021/05/23 00:36:34;;;;;;;0.40;0.40;;;9.50;81.10;;;;;;5003122;28;20639;-76
2021/05/23 00:38:59;;;;;;;0.85;0.60;;;9.60;80.40;;;;;;4994773;28;20037;-77
2021/05/23 00:41:27;;;;;;;1.05;0.50;;;9.70;79.70;;;;;;4995768;28;20572;-76
2021/05/23 00:43:53;;;;;;;0.40;0.40;;;9.80;79.10;;;;;;4998725;28;20037;-76
2021/05/23 00:46:19;;;;;;;0.80;0.52;;;9.80;79.30;;;;;;5014019;28;20026;-76
2021/05/23 00:48:44;;;;;;;0.63;0.50;;;9.90;78.70;;;;;;5014069;28;20066;-77
2021/05/23 00:51:10;;;;;;;0.60;0.45;;;9.90;78.80;;;;;;5013958;28;20550;-76
2021/05/23 00:53:36;;;;;;;1.48;0.60;;;9.70;78.90;;;;;;5012758;28;20110;-76
2021/05/23 00:56:02;;;;;;;1.15;0.60;;;9.50;79.80;;;;;;5013844;28;20032;-76
2021/05/23 00:58:27;;;;;;;0.90;0.52;;;9.50;79.40;;;;;;5001855;28;20504;-76
2021/05/23 01:00:53;;;;;;;0.85;0.50;;;9.40;79.70;;;;;;4996710;28;20121;-76
2021/05/23 01:03:45;;;;;;;0.95;0.50;;;9.30;80.20;;;;;;4999258;28;20036;-76
2021/05/23 01:06:11;;;;;;;0.50;0.47;;;9.20;80.50;;;;;;4999447;28;20030;-76
2021/05/23 01:08:38;;;;;;;0.70;0.50;;;9.20;80.40;;;;;;4999572;28;20082;-76
2021/05/23 01:11:06;;;;;;;0.70;0.60;;;9.20;79.90;;;;;;4999335;28;20026;-76
2021/05/23 01:13:35;;;;;;;0.75;0.60;;;9.30;79.30;;;;;;4998106;28;20026;-76
2021/05/23 01:16:23;;;;;;;0.40;0.40;;;9.30;79.40;;;;;;4999161;28;20583;-76
2021/05/23 01:19:19;;;;;;;0.47;0.45;;;9.20;80.20;;;;;;5017591;28;20077;-76
2021/05/23 01:21:52;;;;;;;0.60;0.50;;;9.20;79.90;;;;;;5004192;28;20030;-76
2021/05/23 01:24:31;;;;;;;0.70;0.43;;;9.10;80.20;;;;;;4998987;28;20105;-76
2021/05/23 01:26:57;;;;;;;1.50;0.55;;;9.10;80.20;;;;;;5001084;28;20073;-77
2021/05/23 01:29:23;;;;;;;0.70;0.63;;;9.10;80.20;;;;;;5013566;28;20077;-76
2021/05/23 01:31:50;;;;;;;0.43;0.40;;;9.20;79.70;;;;;;4997777;28;20022;-77
2021/05/23 01:34:20;;;;;;;0.47;0.47;;;9.10;80.30;;;;;;4997440;28;20022;-76
2021/05/23 01:36:47;;;;;;;0.70;0.60;;;9.00;80.40;;;;;;4998732;28;20026;-76
2021/05/23 01:39:13;;;;;;;0.65;0.50;;;9.00;80.60;;;;;;5002793;28;20121;-76
2021/05/23 01:41:40;;;;;;;1.08;0.57;;;8.90;80.70;;;;;;5018230;28;20027;-76
2021/05/23 01:44:09;;;;;;;1.08;0.60;;;8.80;81.10;;;;;;5018230;28;20058;-76
2021/05/23 01:46:36;;;;;;;0.40;0.40;;;8.80;81.10;;;;;;5018242;28;20067;-76
2021/05/23 01:49:02;;;;;;;1.10;0.57;;;8.80;81.00;;;;;;5000449;28;20034;-77
2021/05/23 01:51:28;;;;;;;0.85;0.50;;;8.80;81.00;;;;;;4998771;28;20129;-76
2021/05/23 01:53:53;;;;;;;0.50;0.40;;;8.90;80.40;;;;;;4998488;28;20110;-76
2021/05/23 01:56:20;;;;;;;0.63;0.50;;;8.90;80.00;;;;;;4999021;28;20081;-76
2021/05/23 01:58:45;;;;;;;0.60;0.50;;;8.90;80.10;;;;;;4997121;28;20022;-76
2021/05/23 02:01:11;;;;;;;0.60;0.60;;;8.90;80.30;;;;;;4998230;28;20057;-76
2021/05/23 02:03:37;;;;;;;0.80;0.50;;;8.90;80.10;;;;;;4998360;28;20026;-76
2021/05/23 02:06:04;;;;;;;0.60;0.50;;;8.80;80.10;;;;;;4998230;28;20038;-76
2021/05/23 02:08:32;;;;;;;1.13;0.80;;;8.80;79.70;;;;;;4998253;28;20084;-76
2021/05/23 02:11:01;;;;;;;0.60;0.50;;;8.80;79.60;;;;;;5006750;28;20023;-76
2021/05/23 02:13:27;;;;;;;0.50;0.43;;;8.80;79.70;;;;;;4996541;28;20043;-76
2021/05/23 02:15:53;;;;;;;0.73;0.50;;;8.80;79.60;;;;;;4997959;28;20184;-76
2021/05/23 02:18:24;;;;;;;0.70;0.60;;;8.80;79.70;;;;;;4997721;28;20046;-76
2021/05/23 02:20:50;;;;;;;0.63;0.40;;;8.80;79.60;;;;;;4996606;28;20121;-76
2021/05/23 02:23:19;;;;;;;0.80;0.50;;;8.80;79.40;;;;;;4997978;28;20061;-76
2021/05/23 02:25:46;;;;;;;0.50;0.50;;;8.80;79.80;;;;;;4997881;28;20452;-76
2021/05/23 02:28:13;;;;;;;0.50;0.50;;;8.70;80.70;;;;;;5003337;28;20141;-76
2021/05/23 02:30:44;;;;;;;0.85;0.50;;;8.50;81.00;;;;;;4996759;28;20018;-76
2021/05/23 02:33:12;;;;;;;0.85;0.52;;;8.40;81.60;;;;;;4997866;28;20439;-76
2021/05/23 02:35:40;;;;;;;1.55;0.57;;;8.50;81.00;;;;;;4997768;28;20069;-76
2021/05/23 02:38:07;;;;;;;0.50;0.50;;;8.60;80.20;;;;;;4996434;28;20026;-76
2021/05/23 02:40:35;;;;;;;0.43;0.43;;;8.60;80.50;;;;;;4997780;28;20035;-77
2021/05/23 02:43:02;;;;;;;0.88;0.65;;;8.60;80.40;;;;;;4997705;28;20033;-76
2021/05/23 02:45:28;;;;;;;0.82;0.50;;;8.50;80.70;;;;;;4997461;28;20018;-77
2021/05/23 02:47:55;;;;;;;0.77;0.70;;;8.50;80.90;;;;;;4995997;28;20032;-76
2021/05/23 02:50:26;;;;;;;0.60;0.60;;;8.40;80.20;;;;;;5011147;28;20030;-76
2021/05/23 02:52:53;;;;;;;0.77;0.65;;;8.50;79.80;;;;;;4997407;28;20037;-76
2021/05/23 02:55:19;;;;;;;0.80;0.60;;;8.50;79.50;;;;;;4995911;28;20022;-76
2021/05/23 02:58:06;;;;;;;0.50;0.50;;;8.60;79.10;;;;;;4997459;28;20034;-76
2021/05/23 03:00:31;;;;;;;0.80;0.60;;;8.60;78.90;;;;;;4996158;28;20031;-77
2021/05/23 03:02:57;;;;;;;0.50;0.50;;;8.70;79.10;;;;;;4997117;28;20073;-76
2021/05/23 03:05:23;;;;;;;1.63;0.57;;;8.70;78.50;;;;;;4997256;28;20037;-76
2021/05/23 03:07:51;;;;;;;0.50;0.50;;;8.90;79.40;;;;;;4997227;28;20030;-76
2021/05/23 03:10:21;;;;;;;0.80;0.50;;;8.90;79.20;;;;;;4996986;28;20034;-77
2021/05/23 03:12:47;;;;;;;0.98;0.60;;;9.00;79.10;;;;;;4997064;28;20018;-77
2021/05/23 03:15:23;;;;;;;1.05;0.70;;;8.90;80.20;;;;;;4996131;28;20499;-76
2021/05/23 03:17:50;;;;;;;1.40;0.70;;;8.80;79.60;;;;;;4997107;28;20406;-76
2021/05/23 03:20:18;;;;;;;0.52;0.52;;;8.90;79.40;;;;;;4995435;28;20081;-76
2021/05/23 03:22:45;;;;;;;1.10;0.68;;;8.80;79.10;;;;;;4996416;28;20036;-77
2021/05/23 03:25:12;;;;;;;0.60;0.50;;;8.70;80.10;;;;;;4996730;28;20026;-76
2021/05/23 03:27:38;;;;;;;0.70;0.50;;;8.70;79.70;;;;;;5002839;28;20026;-76
2021/05/23 03:30:06;;;;;;;0.68;0.57;;;8.60;80.00;;;;;;5014823;28;20030;-76
2021/05/23 03:32:32;;;;;;;1.13;0.70;;;8.60;80.20;;;;;;5015135;28;20025;-76
2021/05/23 03:34:58;;;;;;;0.57;0.52;;;8.60;79.60;;;;;;4998385;28;20156;-78
2021/05/23 03:37:24;;;;;;;0.80;0.50;;;8.40;80.90;;;;;;4998351;28;20030;-76
2021/05/23 03:39:49;;;;;;;0.60;0.50;;;8.30;81.10;;;;;;5016212;28;20022;-76
2021/05/23 03:42:15;;;;;;;0.50;0.50;;;8.30;80.60;;;;;;5014714;28;20034;-76
2021/05/23 03:44:41;;;;;;;1.08;0.70;;;8.30;81.10;;;;;;5014989;28;20480;-76
2021/05/23 03:47:06;;;;;;;2.28;0.77;;;8.20;81.10;;;;;;5016252;28;20396;-76
2021/05/23 03:49:38;;;;;;;0.43;0.40;;;8.20;81.20;;;;;;5014480;28;20030;-75
2021/05/23 03:52:05;;;;;;;1.55;0.60;;;8.20;80.90;;;;;;5003564;28;20062;-76
2021/05/23 03:54:31;;;;;;;0.60;0.50;;;8.20;81.00;;;;;;4996546;28;20076;-76
2021/05/23 03:56:57;;;;;;;0.88;0.60;;;8.10;81.80;;;;;;4994907;28;20022;-77
2021/05/23 03:59:22;;;;;;;0.50;0.50;;;8.10;82.10;;;;;;5000962;28;20133;-76
2021/05/23 04:01:48;;;;;;;0.50;0.50;;;8.00;82.40;;;;;;4996296;28;20034;-76
2021/05/23 04:04:14;;;;;;;1.20;0.60;;;8.00;82.00;;;;;;4994623;28;20032;-77
2021/05/23 04:06:39;;;;;;;1.48;0.60;;;8.10;81.70;;;;;;4978811;28;20081;-76
2021/05/23 04:09:05;;;;;;;0.95;0.77;;;8.10;81.70;;;;;;5005853;28;20029;-76
2021/05/23 04:11:37;;;;;;;0.60;0.60;;;8.20;81.10;;;;;;5014311;28;20028;-76
2021/05/23 04:14:03;;;;;;;0.52;0.52;;;8.20;81.30;;;;;;5013699;28;20026;-76
2021/05/23 04:16:29;;;;;;;0.50;0.50;;;8.20;81.60;;;;;;5014607;28;20072;-76
2021/05/23 04:18:54;;;;;;;0.50;0.50;;;8.00;82.00;;;;;;5009588;28;20081;-77
2021/05/23 04:21:20;;;;;;;0.55;0.55;;;7.90;82.30;;;;;;4994933;28;20038;-76
2021/05/23 04:23:46;;;;;;;0.60;0.60;;;7.90;82.20;;;;;;4994893;28;20027;-76
2021/05/23 04:26:12;;;;;;;0.60;0.50;;;8.00;81.60;;;;;;4996078;28;20038;-76
2021/05/23 04:28:37;;;;;;;1.23;0.80;;;8.10;81.50;;;;;;4999932;28;20504;-76
2021/05/23 04:31:03;;;;;;;0.70;0.50;;;7.90;82.40;;;;;;4995488;28;20397;-77
2021/05/23 04:33:29;;;;;;;0.50;0.50;;;7.90;82.60;;;;;;5015071;28;20065;-76
2021/05/23 04:35:54;;;;;;;0.88;0.60;;;7.90;82.20;;;;;;5011683;28;20378;-76
2021/05/23 04:38:20;;;;;;;0.70;0.55;;;7.90;82.40;;;;;;4999831;28;20026;-76
2021/05/23 04:40:46;;;;;;;0.60;0.50;;;8.00;81.90;;;;;;4999918;28;20444;-76
2021/05/23 04:43:13;;;;;;;0.70;0.60;;;7.90;82.00;;;;;;5010012;28;20026;-76
2021/05/23 04:45:39;;;;;;;0.60;0.50;;;8.00;81.50;;;;;;5018236;28;20038;-77
2021/05/23 04:48:06;;;;;;;0.68;0.60;;;8.10;81.30;;;;;;5017912;28;20625;-76
2021/05/23 04:50:32;;;;;;;0.60;0.60;;;8.10;81.40;;;;;;5016490;28;20034;-76
2021/05/23 04:52:58;;;;;;;0.70;0.60;;;8.20;81.40;;;;;;4998250;28;20026;-76
2021/05/23 04:55:24;;;;;;;0.60;0.57;;;8.00;81.50;;;;;;5002343;28;20510;-76
2021/05/23 04:57:49;;;;;;;0.80;0.60;;;8.00;82.10;;;;;;5001671;28;20523;-76
2021/05/23 05:00:16;;;;;;;0.60;0.60;;;8.00;81.70;;;;;;5017971;28;20475;-76
2021/05/23 05:02:43;;;;;;;0.73;0.60;;;8.00;81.50;;;;;;5013554;28;20037;-76
2021/05/23 05:05:13;;;;;;;0.85;0.55;;;8.00;81.70;;;;;;4999369;28;20493;-76
2021/05/23 05:07:40;;;;;;;0.60;0.60;;;8.10;81.80;;;;;;5014515;28;20096;-76
2021/05/23 05:10:09;;;;;;;0.57;0.50;;;8.00;82.40;;;;;;5016802;28;20061;-76
2021/05/23 05:12:34;;;;;;;0.50;0.50;;;7.90;82.50;;;;;;5017746;28;20065;-76
2021/05/23 05:15:00;;;;;;;0.60;0.50;;;7.90;82.70;;;;;;5017678;28;20018;-76
2021/05/23 05:17:26;;;;;;;0.50;0.50;;;7.80;83.40;;;;;;5017364;28;20484;-76
2021/05/23 05:19:51;;;;;;;0.65;0.60;;;7.80;83.50;;;;;;5010782;28;20064;-76
2021/05/23 05:22:17;;;;;;;0.50;0.50;;;8.10;83.00;;;;;;4997736;28;20038;-76
2021/05/23 05:24:43;;;;;;;0.85;0.70;;;8.30;82.40;;;;;;5003102;28;20145;-76
2021/05/23 05:27:09;;;;;;;0.55;0.47;;;8.70;81.60;;;;;;5001240;28;20022;-76
2021/05/23 05:29:34;;;;;;;0.70;0.60;;;8.90;80.70;;;;;;5017182;28;20029;-77
2021/05/23 05:32:02;;;;;;;0.80;0.52;;;9.20;80.40;;;;;;5016616;28;20484;-77
2021/05/23 05:34:28;;;;;;;0.52;0.50;;;9.40;79.50;;;;;;5017020;28;20053;-77
2021/05/23 05:36:53;;;;;;;0.50;0.50;;;9.30;80.40;;;;;;5018400;28;20053;-77
2021/05/23 05:39:19;;;;;;;1.05;0.60;;;9.30;79.80;;;;;;5012586;28;20028;-76
2021/05/23 05:41:45;;;;;;;0.85;0.57;;;9.30;79.90;;;;;;5018726;28;20098;-76
2021/05/23 05:44:11;;;;;;;0.60;0.52;;;9.20;80.00;;;;;;4998666;28;20164;-76
2021/05/23 09:21:36;;;;;;;0.20;0.10;;;20.20;44.60;;;;;;5058610;28;20392;-77
2021/05/23 09:24:04;;;;;;;0.20;0.10;;;21.70;42.70;;;;;;5056265;28;20024;-77
2021/05/23 09:26:44;;;;;;;0.22;0.13;;;22.40;40.50;;;;;;5063727;28;20051;-78
2021/05/23 09:29:21;;;;;;;0.30;0.10;;;24.30;38.90;;;;;;5062849;28;20024;-78
2021/05/23 09:32:02;;;;;;;0.00;0.00;;;26.60;34.20;;;;;;5067763;28;20469;-78
2021/05/23 09:34:29;;;;;;;0.20;0.05;;;26.30;34.80;;;;;;5067243;28;20078;-78
2021/05/23 09:36:55;;;;;;;0.15;0.00;;;25.70;34.10;;;;;;5069921;28;20067;-79
2021/05/23 09:39:21;;;;;;;0.10;0.00;;;25.00;35.70;;;;;;5070117;28;20029;-78
2021/05/23 09:41:48;;;;;;;0.25;0.13;;;25.60;35.30;;;;;;5068048;28;20028;-76
2021/05/23 09:44:21;;;;;;;0.10;0.10;;;24.50;35.80;;;;;;5069273;28;20039;-77
2021/05/23 09:47:10;;;;;;;0.17;0.10;;;24.50;36.20;;;;;;5067689;28;20048;-78
2021/05/23 09:49:41;;;;;;;0.40;0.10;;;25.20;35.90;;;;;;5069075;28;20032;-78
2021/05/23 09:52:12;;;;;;;0.50;0.10;;;26.30;35.00;;;;;;5065120;28;20544;-79
2021/05/23 09:54:52;;;;;;;0.05;0.00;;;25.80;35.10;;;;;;5063878;28;20024;-77
2021/05/23 09:57:22;;;;;;;0.00;0.00;;;25.10;35.90;;;;;;5054543;28;20009;-78
2021/05/23 10:00:11;;;;;;;0.00;0.00;;;25.00;36.50;;;;;;5062301;28;20032;-77
2021/05/23 10:02:50;;;;;;;0.10;0.10;;;24.20;38.40;;;;;;5069113;28;20119;-77
2021/05/23 10:05:16;;;;;;;0.10;0.00;;;22.80;40.40;;;;;;5067750;28;20490;-77
2021/05/23 10:07:42;;;;;;;0.57;0.10;;;21.00;43.30;;;;;;5069849;28;20047;-80
2021/05/23 10:10:08;;;;;;;0.20;0.10;;;19.90;45.30;;;;;;5068438;28;20496;-82
2021/05/23 10:12:35;;;;;;;0.08;0.08;;;19.30;48.20;;;;;;5066698;28;20024;-78
2021/05/23 10:15:01;;;;;;;0.30;0.20;;;19.60;47.50;;;;;;5069503;28;20043;-78
2021/05/23 10:17:27;;;;;;;0.55;0.20;;;20.10;46.60;;;;;;5069083;28;20490;-77
2021/05/23 10:19:53;;;;;;;0.20;0.10;;;20.70;43.80;;;;;;5068669;28;20050;-78
2021/05/23 10:22:20;;;;;;;0.43;0.10;;;20.30;45.20;;;;;;5066562;28;20029;-79
2021/05/23 10:24:54;;;;;;;0.13;0.10;;;21.80;41.00;;;;;;5070300;28;20033;-80
2021/05/23 10:27:22;;;;;;;0.30;0.20;;;23.60;35.90;;;;;;5069677;28;20027;-76
2021/05/23 10:29:51;;;;;;;0.10;0.10;;;25.40;33.40;;;;;;5090936;28;20024;-76
2021/05/23 10:32:20;;;;;;;0.10;0.10;;;25.90;32.60;;;;;;5080856;28;20021;-74
2021/05/23 10:34:48;;;;;;;0.10;0.10;;;27.10;32.80;;;;;;5063868;28;20033;-74
2021/05/23 10:37:25;;;;;;;0.10;0.10;;;24.70;33.20;;;;;;5056663;28;20037;-74
2021/05/23 10:39:51;;;;;;;0.17;0.10;;;23.40;34.00;;;;;;5056324;28;20029;-74
2021/05/23 10:42:18;;;;;;;0.10;0.10;;;22.80;36.50;;;;;;5044926;28;20036;-74
2021/05/23 10:44:49;;;;;;;0.17;0.10;;;22.00;37.70;;;;;;5055634;28;20032;-73
2021/05/23 10:47:23;;;;;;;0.20;0.10;;;21.80;38.10;;;;;;5043230;28;20089;-74
2021/05/23 10:49:54;;;;;;;0.10;0.10;;;21.40;38.90;;;;;;5036709;28;20029;-75
2021/05/23 10:52:23;;;;;;;0.40;0.20;;;20.80;40.10;;;;;;5036967;28;20440;-74
2021/05/23 10:55:10;;;;;;;0.10;0.10;;;20.50;40.40;;;;;;5055065;28;20044;-73
2021/05/23 10:57:49;;;;;;;0.10;0.10;;;20.40;41.50;;;;;;5045614;28;20029;-74
2021/05/23 11:00:23;;;;;;;0.10;0.10;;;20.20;40.90;;;;;;5046969;28;20032;-77
2021/05/23 11:02:51;;;;;;;0.40;0.20;;;19.80;41.90;;;;;;5070634;28;20108;-76
2021/05/23 11:05:26;;;;;;;0.20;0.10;;;19.80;42.00;;;;;;5045721;28;20452;-75
2021/05/23 11:08:07;;;;;;;0.60;0.30;;;20.20;41.10;;;;;;5075670;28;20116;-75
2021/05/23 11:10:40;;;;;;;0.45;0.20;;;20.90;41.80;;;;;;5068866;28;20033;-74
2021/05/23 11:13:06;;;;;;;0.20;0.10;;;21.00;39.20;;;;;;5055678;28;20033;-76
2021/05/23 11:15:47;;;;;;;0.10;0.10;;;21.30;40.60;;;;;;5056731;28;20021;-76
2021/05/23 11:18:20;;;;;;;;;;;21.70;39.50;;;;;;5056005;28;20025;-76
2021/05/23 11:21:02;;;;;;;0.10;0.10;;;21.80;38.70;;;;;;5021392;28;20375;-76
2021/05/23 11:23:29;;;;;;;0.20;0.10;;;21.80;37.90;;;;;;5016942;28;20028;-76
2021/05/23 11:26:10;;;;;;;0.25;0.10;;;21.00;39.10;;;;;;5031535;28;20065;-76
2021/05/23 11:28:36;;;;;;;0.35;0.20;;;20.40;41.00;;;;;;5048477;28;20051;-74
2021/05/23 11:31:02;;;;;;;0.30;0.20;;;19.50;45.80;;;;;;5056840;28;20037;-75
2021/05/23 11:33:28;;;;;;;0.25;0.20;;;19.00;52.10;;;;;;5031533;28;20061;-75
2021/05/23 11:35:54;;;;;;;0.25;0.15;;;18.90;54.30;;;;;;5034717;28;20110;-83
2021/05/23 11:38:36;;;;;;;0.30;0.10;;;18.80;55.40;;;;;;5034147;28;20017;-75
2021/05/23 11:41:03;;;;;;;0.30;0.20;;;18.60;54.70;;;;;;5032544;28;20045;-74
2021/05/23 11:43:28;;;;;;;0.20;0.20;;;18.30;52.50;;;;;;5023363;28;20046;-76
2021/05/23 11:45:55;;;;;;;0.20;0.20;;;18.50;51.50;;;;;;4982332;28;20038;-75
2021/05/23 11:48:32;;;;;;;0.47;0.20;;;19.20;51.70;;;;;;4997590;28;20041;-74
2021/05/23 11:50:59;;;;;;;1.08;0.20;;;20.20;49.80;;;;;;5006578;28;20117;-74
2021/05/23 11:53:45;;;;;;;0.43;0.20;;;20.20;47.50;;;;;;5010507;28;20818;-73
2021/05/23 11:56:16;;;;;;;0.40;0.20;;;19.90;46.80;;;;;;5013146;28;20128;-73
2021/05/23 11:58:46;;;;;;;0.55;0.20;;;19.50;48.10;;;;;;5009716;28;20116;-74
2021/05/23 12:01:18;;;;;;;0.52;0.20;;;19.50;48.70;;;;;;5011708;28;20488;-74
2021/05/23 12:03:55;;;;;;;0.38;0.20;;;19.20;47.50;;;;;;5013676;28;20480;-74
2021/05/23 12:06:21;;;;;;;0.22;0.10;;;19.00;48.00;;;;;;5010701;28;20034;-74
2021/05/23 12:08:47;;;;;;;0.30;0.20;;;19.10;47.30;;;;;;5013213;28;20033;-74
2021/05/23 12:11:12;;;;;;;0.20;0.10;;;18.80;47.90;;;;;;5011481;28;20105;-74
2021/05/23 12:13:41;;;;;;;0.57;0.20;;;18.30;49.10;;;;;;5010604;28;20022;-74
2021/05/23 12:16:08;;;;;;;0.20;0.10;;;17.80;52.70;;;;;;5013785;28;20431;-74
2021/05/23 12:18:37;;;;;;;0.20;0.15;;;17.20;60.20;;;;;;5009185;28;20088;-74
2021/05/23 12:21:03;;;;;;;0.32;0.20;;;16.80;61.20;;;;;;5008272;28;20428;-74
2021/05/23 12:23:29;;;;;;;0.10;0.10;;;17.10;59.00;;;;;;5005418;28;20057;-74
2021/05/23 12:25:55;;;;;;;0.60;0.30;;;18.10;58.10;;;;;;5012185;28;20072;-74
2021/05/23 12:28:20;;;;;;;1.15;0.20;;;18.60;53.80;;;;;;5008758;28;20396;-73
2021/05/23 12:30:46;;;;;;;0.30;0.20;;;18.70;51.80;;;;;;5013346;28;20040;-74
2021/05/23 12:33:11;;;;;;;0.30;0.10;;;18.80;52.90;;;;;;5011900;28;20018;-74
2021/05/23 12:35:40;;;;;;;1.55;0.20;;;18.40;49.10;;;;;;5014554;28;20033;-76
2021/05/23 12:38:06;;;;;;;0.38;0.20;;;18.50;50.00;;;;;;5013375;28;20021;-74
2021/05/23 12:40:36;;;;;;;0.40;0.30;;;18.60;51.40;;;;;;5043787;28;20037;-74
2021/05/23 12:43:25;;;;;;;0.40;0.20;;;19.00;50.20;;;;;;5010050;28;20105;-74
2021/05/23 12:45:57;;;;;;;0.10;0.10;;;19.50;48.40;;;;;;5043043;28;20041;-74
2021/05/23 12:48:35;;;;;;;0.30;0.20;;;19.80;46.20;;;;;;5044887;28;20037;-74
2021/05/23 12:51:06;;;;;;;0.52;0.28;;;19.50;43.20;;;;;;5009087;28;20033;-74
2021/05/23 12:53:34;;;;;;;0.38;0.20;;;19.60;43.10;;;;;;5012664;28;20018;-74
2021/05/23 12:56:11;;;;;;;0.30;0.20;;;18.90;43.10;;;;;;5010308;28;20176;-75
2021/05/23 12:59:00;;;;;;;0.60;0.20;;;18.60;43.50;;;;;;5023200;28;20105;-74
2021/05/23 13:01:46;;;;;;;0.30;0.17;;;18.80;44.00;;;;;;5016225;28;20370;-75
2021/05/23 13:04:17;;;;;;;0.30;0.10;;;19.00;42.70;;;;;;5005321;28;20168;-74
2021/05/23 13:06:52;;;;;;;0.43;0.30;;;19.30;40.90;;;;;;5012291;28;20542;-75
2021/05/23 13:09:19;;;;;;;0.50;0.20;;;19.40;40.70;;;;;;5011682;28;20040;-75
2021/05/23 13:11:56;;;;;;;0.73;0.25;;;19.90;41.00;;;;;;4988697;28;20121;-79
2021/05/23 13:14:23;;;;;;;0.28;0.20;;;20.10;41.10;;;;;;4991577;28;20149;-77
2021/05/23 13:16:54;;;;;;;0.43;0.20;;;19.60;39.10;;;;;;4994073;28;20031;-80
2021/05/23 13:19:23;;;;;;;0.40;0.20;;;19.60;40.90;;;;;;4992776;28;20056;-79
2021/05/23 13:21:49;;;;;;;0.65;0.10;;;19.60;39.80;;;;;;4993268;28;20033;-77
2021/05/23 13:24:17;;;;;;;0.55;0.20;;;19.50;40.10;;;;;;4992852;28;20047;-81
2021/05/23 13:26:56;;;;;;;0.38;0.10;;;19.50;40.00;;;;;;5006931;28;20031;-78
2021/05/23 13:29:23;;;;;;;0.43;0.30;;;19.20;40.60;;;;;;4992851;28;20015;-80
2021/05/23 13:31:49;;;;;;;0.30;0.20;;;18.70;41.50;;;;;;4994758;28;20109;-81
2021/05/23 13:34:15;;;;;;;0.85;0.20;;;18.80;41.00;;;;;;4991363;28;20073;-77
2021/05/23 13:36:41;;;;;;;0.60;0.20;;;18.80;41.70;;;;;;4975561;28;20026;-78
2021/05/23 13:39:09;;;;;;;0.13;0.10;;;18.70;42.60;;;;;;4975855;28;20066;-79
2021/05/23 13:41:37;;;;;;;0.22;0.20;;;19.00;41.70;;;;;;4975961;28;20027;-79
2021/05/23 13:44:06;;;;;;;0.28;0.15;;;19.30;40.80;;;;;;4976100;28;20113;-78
2021/05/23 13:46:32;;;;;;;0.38;0.17;;;19.40;40.60;;;;;;4985196;28;20049;-80
2021/05/23 13:48:57;;;;;;;0.47;0.20;;;19.40;41.90;;;;;;4995393;28;20054;-81
2021/05/23 13:51:23;;;;;;;0.50;0.20;;;19.20;40.90;;;;;;4989254;28;20628;-81
2021/05/23 13:53:49;;;;;;;0.30;0.20;;;19.00;39.20;;;;;;4975565;28;20106;-76
2021/05/23 13:56:14;;;;;;;0.40;0.22;;;18.90;38.70;;;;;;4976210;28;20030;-79
2021/05/23 13:58:40;;;;;;;0.50;0.25;;;18.80;39.20;;;;;;4976023;28;20037;-78
2021/05/23 14:01:06;;;;;;;0.40;0.20;;;19.00;40.60;;;;;;4975913;28;20076;-84
2021/05/23 14:03:31;;;;;;;0.50;0.30;;;18.80;41.00;;;;;;4975999;28;20046;-82
2021/05/23 14:05:57;;;;;;;0.77;0.20;;;18.80;41.50;;;;;;4974583;28;20059;-85
2021/05/23 14:08:25;;;;;;;0.52;0.20;;;18.40;42.00;;;;;;4986436;28;20046;-80
2021/05/23 14:10:53;;;;;;;0.30;0.20;;;18.80;41.70;;;;;;4986278;28;21219;-82
2021/05/23 14:13:20;;;;;;;0.82;0.30;;;18.40;42.90;;;;;;4983756;28;20093;-84
2021/05/23 14:15:46;;;;;;;0.47;0.20;;;18.80;42.80;;;;;;4992682;28;21072;-83
2021/05/23 14:18:12;;;;;;;0.25;0.17;;;18.90;41.40;;;;;;4998905;28;20030;-83
2021/05/23 14:20:38;;;;;;;0.70;0.30;;;18.70;41.10;;;;;;4999736;28;20050;-83
2021/05/23 14:23:05;;;;;;;0.35;0.20;;;18.80;42.10;;;;;;4988087;28;20109;-85
2021/05/23 14:25:31;;;;;;;0.50;0.20;;;19.00;39.10;;;;;;4987521;28;20027;-84
2021/05/23 14:27:57;;;;;;;0.25;0.13;;;18.80;39.80;;;;;;4997037;28;20507;-83
2021/05/23 14:30:23;;;;;;;0.50;0.20;;;19.30;39.40;;;;;;4996785;28;20118;-84
2021/05/23 14:32:49;;;;;;;0.85;0.20;;;19.80;39.80;;;;;;4998194;28;20026;-83
2021/05/23 14:35:19;;;;;;;0.55;0.20;;;19.70;39.30;;;;;;4996964;28;20105;-84
2021/05/23 14:37:44;;;;;;;0.63;0.30;;;19.20;39.80;;;;;;4998746;28;20031;-84
2021/05/23 14:40:13;;;;;;;0.35;0.20;;;19.40;39.80;;;;;;4993046;28;20023;-84
2021/05/23 14:42:38;;;;;;;0.60;0.38;;;19.30;40.00;;;;;;4997302;28;20034;-83
2021/05/23 14:45:05;;;;;;;0.45;0.20;;;19.70;39.30;;;;;;4994384;28;20022;-83
2021/05/23 14:47:32;;;;;;;0.30;0.20;;;19.60;39.70;;;;;;4989795;28;20031;-84
2021/05/23 14:49:57;;;;;;;0.80;0.30;;;19.40;39.00;;;;;;4993084;28;20117;-83
2021/05/23 14:52:25;;;;;;;0.47;0.30;;;19.10;39.00;;;;;;4992901;28;20066;-84
2021/05/23 14:54:53;;;;;;;0.40;0.20;;;19.00;40.10;;;;;;4990448;28;20444;-84
2021/05/23 14:57:19;;;;;;;0.57;0.20;;;19.40;40.50;;;;;;4992150;28;20053;-83
2021/05/23 14:59:45;;;;;;;0.65;0.30;;;19.30;41.40;;;;;;5018256;28;20034;-85
2021/05/23 15:02:12;;;;;;;0.32;0.20;;;18.80;42.80;;;;;;4991302;28;20078;-81
2021/05/23 15:04:39;;;;;;;0.57;0.20;;;18.30;43.70;;;;;;4995181;28;20026;-84
2021/05/23 15:07:05;;;;;;;0.38;0.22;;;18.30;44.00;;;;;;4990921;28;20854;-84
2021/05/23 15:09:32;;;;;;;0.43;0.30;;;18.10;45.30;;;;;;4985405;28;20033;-82
2021/05/23 15:11:58;;;;;;;0.45;0.25;;;17.90;45.70;;;;;;5000948;28;20031;-82
2021/05/23 15:14:24;;;;;;;0.75;0.30;;;17.80;46.40;;;;;;4989657;28;20033;-82
2021/05/23 15:16:50;;;;;;;0.50;0.20;;;17.80;46.90;;;;;;5026052;28;20121;-82
2021/05/23 15:19:16;;;;;;;0.43;0.28;;;17.60;49.10;;;;;;4995394;28;20138;-83
2021/05/23 15:21:42;;;;;;;1.20;0.50;;;17.50;50.60;;;;;;4998163;28;20060;-84
2021/05/23 15:24:09;;;;;;;0.50;0.30;;;17.30;52.00;;;;;;4982320;28;20501;-80
2021/05/23 15:32:00;;;;;;;0.50;0.30;;;16.00;63.90;;;;;;4994615;28;20048;-83
2021/05/23 15:34:27;;;;;;;0.73;0.40;;;15.70;66.00;;;;;;5017313;28;20035;-83
2021/05/23 15:36:54;;;;;;;0.77;0.40;;;16.00;65.80;;;;;;4994574;28;20034;-78
2021/05/23 15:39:20;;;;;;;0.68;0.30;;;16.60;64.90;;;;;;4991879;28;20061;-80
2021/05/23 15:41:47;;;;;;;0.47;0.30;;;16.90;63.30;;;;;;4990494;28;20026;-79
2021/05/23 15:44:12;;;;;;;1.30;0.30;;;16.80;60.60;;;;;;4986631;28;20038;-83
2021/05/23 15:46:38;;;;;;;0.85;0.40;;;17.00;59.30;;;;;;4976534;28;20477;-83
2021/05/23 15:49:05;;;;;;;0.55;0.30;;;17.00;58.90;;;;;;5012891;28;20022;-81
2021/05/23 15:51:31;;;;;;;0.50;0.22;;;17.10;59.00;;;;;;4998095;28;20027;-79
2021/05/23 15:53:57;;;;;;;0.77;0.40;;;17.10;59.50;;;;;;4997295;28;20045;-79
2021/05/23 15:56:24;;;;;;;0.70;0.30;;;17.00;59.20;;;;;;4995914;28;20022;-78
2021/05/23 15:58:50;;;;;;;0.52;0.30;;;16.80;60.30;;;;;;4995144;28;20471;-80
2021/05/23 16:01:16;;;;;;;0.60;0.30;;;16.70;59.30;;;;;;4992481;28;20054;-80
2021/05/23 16:03:44;;;;;;;0.70;0.30;;;16.80;59.00;;;;;;4994397;28;20033;-80
2021/05/23 16:06:10;;;;;;;1.20;0.57;;;16.80;58.80;;;;;;4995241;28;20026;-79
2021/05/23 16:08:36;;;;;;;0.88;0.45;;;17.00;57.60;;;;;;4989357;28;20061;-78
2021/05/23 16:11:02;;;;;;;0.82;0.50;;;17.00;57.70;;;;;;4991848;28;20031;-84
2021/05/23 16:13:27;;;;;;;1.67;0.52;;;17.00;58.00;;;;;;4990706;28;20034;-80
2021/05/23 16:15:53;;;;;;;0.65;0.30;;;16.90;56.70;;;;;;4996400;28;20511;-83
2021/05/23 16:18:19;;;;;;;1.02;0.40;;;16.80;57.20;;;;;;4982674;28;20440;-82
2021/05/23 16:20:45;;;;;;;1.23;0.35;;;16.80;56.80;;;;;;4995004;28;20424;-80
2021/05/23 16:23:10;;;;;;;0.60;0.30;;;16.70;56.70;;;;;;4995980;28;20026;-82
2021/05/23 16:25:36;;;;;;;0.47;0.28;;;16.50;56.30;;;;;;4993862;28;20086;-88
2021/05/23 16:28:01;;;;;;;0.50;0.30;;;16.60;56.40;;;;;;4997649;28;20179;-89
2021/05/23 16:30:27;;;;;;;0.82;0.40;;;16.10;56.40;;;;;;4996874;28;20100;-83
2021/05/23 16:32:53;;;;;;;1.00;0.40;;;16.10;56.90;;;;;;4997544;28;20108;-90
2021/05/23 16:35:19;;;;;;;0.90;0.50;;;16.00;57.40;;;;;;4991861;28;20050;-88
2021/05/23 16:37:45;;;;;;;0.38;0.28;;;16.20;56.00;;;;;;4996570;28;20528;-88
2021/05/23 16:40:11;;;;;;;0.68;0.32;;;16.50;55.10;;;;;;4994509;28;20473;-90